createdAt,value
2018-07-15T00:01:57.003Z,97268.00
2018-07-15T00:04:38.226Z,97274.00
2018-07-15T00:07:19.613Z,97270.00
2018-07-15T00:10:02.503Z,97262.00
2018-07-15T00:12:43.852Z,97267.00
2018-07-15T00:15:25.183Z,97270.00
2018-07-15T00:18:06.647Z,97267.00
2018-07-15T00:20:48.097Z,97256.00
2018-07-15T00:23:29.785Z,97257.00
2018-07-15T00:26:11.136Z,97259.00
2018-07-15T00:28:52.348Z,97254.00
2018-07-15T00:31:34.180Z,97254.00
2018-07-15T00:34:15.533Z,97247.00
2018-07-15T00:36:56.880Z,97239.00
2018-07-15T00:39:38.114Z,97245.00
2018-07-15T00:42:19.472Z,97252.00
2018-07-15T00:45:01.477Z,97249.00
2018-07-15T00:47:42.790Z,97243.00
2018-07-15T00:50:24.233Z,97240.00
2018-07-15T00:53:05.535Z,97237.00
2018-07-15T00:55:47.184Z,97236.00
2018-07-15T00:58:28.706Z,97230.00
2018-07-15T01:01:10.056Z,97234.00
2018-07-15T01:03:52.193Z,97239.00
2018-07-15T01:06:34.225Z,97238.00
2018-07-15T01:09:15.513Z,97229.00
2018-07-15T01:11:56.893Z,97234.00
2018-07-15T01:14:38.360Z,97232.00
2018-07-15T01:17:19.734Z,97235.00
2018-07-15T01:20:02.473Z,97238.00
2018-07-15T01:22:43.889Z,97239.00
2018-07-15T01:25:25.429Z,97232.00
2018-07-15T01:28:07.664Z,97228.00
2018-07-15T01:30:51.880Z,97223.00
2018-07-15T01:33:33.349Z,97227.00
2018-07-15T01:36:14.844Z,97237.00
2018-07-15T01:38:56.838Z,97234.00
2018-07-15T01:41:38.157Z,97229.00
2018-07-15T01:44:20.357Z,97238.00
2018-07-15T01:47:03.358Z,97230.00
2018-07-15T01:49:44.581Z,97221.00
2018-07-15T01:52:25.909Z,97230.00
2018-07-15T01:55:07.274Z,97223.00
2018-07-15T01:57:49.345Z,97223.00
2018-07-15T02:07:24.584Z,97233.00
2018-07-15T02:10:06.248Z,97235.00
2018-07-15T02:12:47.726Z,97237.00
2018-07-15T02:15:29.905Z,97229.00
2018-07-15T02:18:11.431Z,97226.00
2018-07-15T02:20:54.470Z,97227.00
2018-07-15T02:23:36.690Z,97231.00
2018-07-15T02:26:18.969Z,97231.00
2018-07-15T02:29:00.529Z,97233.00
2018-07-15T02:31:43.806Z,97233.00
2018-07-15T02:34:26.101Z,97225.00
2018-07-15T02:37:07.518Z,97232.00
2018-07-15T02:39:51.528Z,97222.00
2018-07-15T02:42:32.947Z,97224.00
2018-07-15T02:45:15.072Z,97227.00
2018-07-15T02:47:57.462Z,97231.00
2018-07-15T02:50:41.060Z,97223.00
2018-07-15T02:53:26.869Z,97232.00
2018-07-15T02:56:08.282Z,97230.00
2018-07-15T02:58:50.150Z,97229.00
2018-07-15T03:01:31.747Z,97229.00
2018-07-15T03:04:13.033Z,97236.00
2018-07-15T03:06:55.229Z,97231.00
2018-07-15T03:09:36.542Z,97232.00
2018-07-15T03:12:20.705Z,97231.00
2018-07-15T03:15:02.580Z,97231.00
2018-07-15T03:17:44.074Z,97224.00
2018-07-15T03:20:25.759Z,97244.00
2018-07-15T03:23:07.238Z,97234.00
2018-07-15T03:25:50.897Z,97228.00
2018-07-15T03:28:33.502Z,97235.00
2018-07-15T03:31:23.416Z,97226.00
2018-07-15T03:34:04.775Z,97225.00
2018-07-15T03:36:46.143Z,97232.00
2018-07-15T03:39:27.569Z,97228.00
2018-07-15T03:42:09.102Z,97227.00
2018-07-15T03:44:51.189Z,97229.00
2018-07-15T03:47:32.570Z,97235.00
2018-07-15T03:50:14.041Z,97230.00
2018-07-15T03:53:06.234Z,97232.00
2018-07-15T03:55:47.629Z,97243.00
2018-07-15T04:03:44.257Z,97240.00
2018-07-15T04:06:25.824Z,97239.00
2018-07-15T04:09:07.629Z,97252.00
2018-07-15T04:11:48.950Z,97238.00
2018-07-15T04:14:30.258Z,97242.00
2018-07-15T04:17:11.726Z,97241.00
2018-07-15T04:19:53.769Z,97233.00
2018-07-15T04:22:37.789Z,97242.00
2018-07-15T04:25:24.914Z,97247.00
2018-07-15T04:28:06.351Z,97246.00
2018-07-15T04:30:47.600Z,97245.00
2018-07-15T04:33:30.019Z,97244.00
2018-07-15T04:36:13.737Z,97256.00
2018-07-15T04:38:56.145Z,97246.00
2018-07-15T04:41:39.581Z,97249.00
2018-07-15T04:44:22.836Z,97252.00
2018-07-15T04:47:04.254Z,97249.00
2018-07-15T04:49:45.633Z,97254.00
2018-07-15T04:52:27.033Z,97246.00
2018-07-15T04:55:08.423Z,97246.00
2018-07-15T04:57:50.249Z,97256.00
2018-07-15T05:00:31.607Z,97258.00
2018-07-15T05:03:12.993Z,97252.00
2018-07-15T05:05:55.805Z,97249.00
2018-07-15T05:08:37.265Z,97249.00
2018-07-15T05:11:18.791Z,97256.00
2018-07-15T05:14:00.174Z,97249.00
2018-07-15T05:16:41.687Z,97247.00
2018-07-15T05:19:24.814Z,97252.00
2018-07-15T05:22:09.037Z,97262.00
2018-07-15T05:24:51.281Z,97268.00
2018-07-15T05:27:32.694Z,97268.00
2018-07-15T05:30:14.055Z,97260.00
2018-07-15T05:32:55.821Z,97268.00
2018-07-15T05:35:37.146Z,97283.00
2018-07-15T05:38:18.542Z,97280.00
2018-07-15T05:41:00.438Z,97282.00
2018-07-15T05:43:41.760Z,97284.00
2018-07-15T05:46:23.172Z,97289.00
2018-07-15T05:49:04.513Z,97286.00
2018-07-15T05:51:46.110Z,97292.00
2018-07-15T05:54:27.484Z,97291.00
2018-07-15T05:57:08.818Z,97285.00
2018-07-15T05:59:50.328Z,97290.00
2018-07-15T06:05:43.209Z,97287.00
2018-07-15T06:08:25.205Z,97295.00
2018-07-15T06:11:06.670Z,97290.00
2018-07-15T06:13:47.850Z,97285.00
2018-07-15T06:16:30.093Z,97293.00
2018-07-15T06:19:11.502Z,97296.00
2018-07-15T06:21:53.060Z,97295.00
2018-07-15T06:24:34.273Z,97298.00
2018-07-15T06:27:15.584Z,97302.00
2018-07-15T06:29:57.086Z,97304.00
2018-07-15T06:32:38.533Z,97302.00
2018-07-15T06:35:20.405Z,97302.00
2018-07-15T06:38:01.827Z,97297.00
2018-07-15T06:40:43.569Z,97293.00
2018-07-15T06:43:26.015Z,97299.00
2018-07-15T06:46:07.362Z,97293.00
2018-07-15T06:48:48.691Z,97299.00
2018-07-15T06:51:30.422Z,97305.00
2018-07-15T06:54:11.838Z,97303.00
2018-07-15T06:56:54.058Z,97307.00
2018-07-15T06:59:35.600Z,97301.00
2018-07-15T07:02:17.301Z,97306.00
2018-07-15T07:04:58.858Z,97313.00
2018-07-15T07:07:40.322Z,97309.00
2018-07-15T07:10:23.121Z,97313.00
2018-07-15T07:13:04.612Z,97297.00
2018-07-15T07:15:45.960Z,97306.00
2018-07-15T07:18:27.321Z,97298.00
2018-07-15T07:21:15.023Z,97312.00
2018-07-15T07:23:56.549Z,97294.00
2018-07-15T07:26:41.348Z,97295.00
2018-07-15T07:29:23.234Z,97298.00
2018-07-15T07:32:14.847Z,97296.00
2018-07-15T07:34:56.410Z,97287.00
2018-07-15T07:37:37.865Z,97286.00
2018-07-15T07:40:19.449Z,97285.00
2018-07-15T07:43:00.954Z,97284.00
2018-07-15T07:45:53.282Z,97293.00
2018-07-15T07:48:37.939Z,97299.00
2018-07-15T07:51:19.354Z,97294.00
2018-07-15T07:54:01.230Z,97299.00
2018-07-15T07:56:42.711Z,97303.00
2018-07-15T07:59:24.806Z,97296.00
2018-07-15T08:02:06.591Z,97295.00
2018-07-15T08:04:48.694Z,97290.00
2018-07-15T08:07:31.209Z,97293.00
2018-07-15T08:10:12.566Z,97298.00
2018-07-15T08:12:54.242Z,97301.00
2018-07-15T08:15:35.709Z,97300.00
2018-07-15T08:18:20.201Z,97306.00
2018-07-15T08:21:12.514Z,97300.00
2018-07-15T08:23:54.734Z,97305.00
2018-07-15T08:26:36.006Z,97298.00
2018-07-15T08:29:19.123Z,97312.00
2018-07-15T08:32:00.605Z,97314.00
2018-07-15T08:34:41.980Z,97301.00
2018-07-15T08:37:28.932Z,97303.00
2018-07-15T08:40:13.496Z,97306.00
2018-07-15T08:42:55.532Z,97311.00
2018-07-15T08:45:37.723Z,97314.00
2018-07-15T08:48:20.773Z,97319.00
2018-07-15T08:51:10.133Z,97321.00
2018-07-15T08:53:53.400Z,97322.00
2018-07-15T08:56:35.303Z,97305.00
2018-07-15T08:59:17.088Z,97318.00
2018-07-15T09:01:59.317Z,97320.00
2018-07-15T09:04:41.105Z,97318.00
2018-07-15T09:07:25.422Z,97319.00
2018-07-15T09:10:13.826Z,97316.00
2018-07-15T09:12:56.563Z,97320.00
2018-07-15T09:15:37.965Z,97314.00
2018-07-15T09:18:20.135Z,97316.00
2018-07-15T09:21:02.465Z,97315.00
2018-07-15T09:23:43.949Z,97314.00
2018-07-15T09:26:25.976Z,97321.00
2018-07-15T09:29:07.454Z,97320.00
2018-07-15T09:31:49.449Z,97309.00
2018-07-15T09:34:31.608Z,97305.00
2018-07-15T09:37:12.983Z,97309.00
2018-07-15T09:39:55.367Z,97312.00
2018-07-15T09:42:36.912Z,97313.00
2018-07-15T09:45:18.378Z,97317.00
2018-07-15T09:48:00.745Z,97313.00
2018-07-15T09:50:42.296Z,97310.00
2018-07-15T09:53:24.695Z,97310.00
2018-07-15T09:56:06.362Z,97308.00
2018-07-15T09:58:47.865Z,97316.00
2018-07-15T10:01:29.440Z,97310.00
2018-07-15T10:04:10.979Z,97306.00
2018-07-15T10:09:44.709Z,97316.00
2018-07-15T10:12:26.719Z,97305.00
2018-07-15T10:15:08.360Z,97309.00
2018-07-15T10:17:49.921Z,97301.00
2018-07-15T10:20:32.089Z,97300.00
2018-07-15T10:23:13.793Z,97297.00
2018-07-15T10:25:56.104Z,97300.00
2018-07-15T10:28:37.866Z,97295.00
2018-07-15T10:31:19.381Z,97291.00
2018-07-15T10:34:00.961Z,97293.00
2018-07-15T10:36:48.743Z,97285.00
2018-07-15T10:39:32.241Z,97282.00
2018-07-15T10:42:13.766Z,97278.00
2018-07-15T10:44:56.287Z,97268.00
2018-07-15T10:47:37.751Z,97278.00
2018-07-15T10:50:19.335Z,97268.00
2018-07-15T10:53:00.775Z,97272.00
2018-07-15T10:55:42.544Z,97276.00
2018-07-15T10:58:26.255Z,97276.00
2018-07-15T11:01:07.772Z,97267.00
2018-07-15T11:03:49.199Z,97263.00
2018-07-15T11:06:31.953Z,97261.00
2018-07-15T11:09:13.466Z,97263.00
2018-07-15T11:11:56.261Z,97258.00
2018-07-15T11:14:38.048Z,97248.00
2018-07-15T11:17:19.689Z,97246.00
2018-07-15T11:20:22.325Z,97249.00
2018-07-15T11:23:04.753Z,97252.00
2018-07-15T11:25:46.182Z,97257.00
2018-07-15T11:28:27.843Z,97252.00
2018-07-15T11:31:10.730Z,97253.00
2018-07-15T11:33:53.909Z,97255.00
2018-07-15T11:36:36.189Z,97253.00
2018-07-15T11:39:20.086Z,97249.00
2018-07-15T11:42:02.275Z,97243.00
2018-07-15T11:44:46.986Z,97247.00
2018-07-15T11:47:29.494Z,97235.00
2018-07-15T11:50:11.198Z,97248.00
2018-07-15T11:53:00.242Z,97233.00
2018-07-15T11:56:03.470Z,97234.00
2018-07-15T11:58:45.233Z,97231.00
2018-07-15T12:01:28.018Z,97231.00
2018-07-15T12:04:34.209Z,97229.00
2018-07-15T12:07:17.256Z,97228.00
2018-07-15T12:10:02.328Z,97227.00
2018-07-15T12:12:44.986Z,97232.00
2018-07-15T12:15:45.853Z,97222.00
2018-07-15T12:18:34.950Z,97225.00
2018-07-15T12:21:18.874Z,97217.00
2018-07-15T12:24:04.829Z,97214.00
2018-07-15T12:26:46.422Z,97204.00
2018-07-15T12:29:28.055Z,97204.00
2018-07-15T12:35:34.773Z,97195.00
2018-07-15T12:38:21.252Z,97197.00
2018-07-15T12:41:18.352Z,97189.00
2018-07-15T12:44:01.965Z,97194.00
2018-07-15T12:46:55.002Z,97194.00
2018-07-15T12:49:38.646Z,97190.00
2018-07-15T12:52:20.218Z,97176.00
2018-07-15T12:55:04.504Z,97177.00
2018-07-15T12:57:54.795Z,97174.00
2018-07-15T13:00:58.025Z,97167.00
2018-07-15T13:03:40.585Z,97165.00
2018-07-15T13:06:31.920Z,97166.00
2018-07-15T13:09:14.934Z,97168.00
2018-07-15T13:11:57.534Z,97168.00
2018-07-15T13:14:41.438Z,97160.00
2018-07-15T13:17:24.819Z,97156.00
2018-07-15T13:20:10.390Z,97156.00
2018-07-15T13:22:54.332Z,97147.00
2018-07-15T13:25:36.193Z,97156.00
2018-07-15T13:28:17.714Z,97139.00
2018-07-15T13:30:59.393Z,97143.00
2018-07-15T13:33:41.234Z,97144.00
2018-07-15T13:36:23.027Z,97137.00
2018-07-15T13:39:07.873Z,97131.00
2018-07-15T13:41:51.320Z,97129.00
2018-07-15T13:44:33.677Z,97127.00
2018-07-15T13:47:33.017Z,97135.00
2018-07-15T13:50:20.864Z,97134.00
2018-07-15T13:53:02.641Z,97127.00
2018-07-15T13:55:54.134Z,97125.00
2018-07-15T13:58:36.141Z,97122.00
2018-07-15T14:01:18.066Z,97124.00
2018-07-15T14:03:59.776Z,97114.00
2018-07-15T14:06:41.683Z,97116.00
2018-07-15T14:09:24.121Z,97112.00
2018-07-15T14:12:08.860Z,97113.00
2018-07-15T14:14:50.976Z,97124.00
2018-07-15T14:17:33.809Z,97111.00
2018-07-15T14:20:15.396Z,97110.00
2018-07-15T14:25:46.142Z,97107.00
2018-07-15T14:28:28.334Z,97102.00
2018-07-15T14:31:10.170Z,97102.00
2018-07-15T14:33:51.711Z,97100.00
2018-07-15T14:36:33.253Z,97096.00
2018-07-15T14:39:16.397Z,97096.00
2018-07-15T14:41:59.499Z,97093.00
2018-07-15T14:44:45.917Z,97101.00
2018-07-15T14:47:31.645Z,97095.00
2018-07-15T14:50:13.419Z,97089.00
2018-07-15T14:53:32.413Z,97084.00
2018-07-15T14:56:24.718Z,97088.00
2018-07-15T14:59:09.499Z,97085.00
2018-07-15T15:01:54.915Z,97089.00
2018-07-15T15:04:41.293Z,97083.00
2018-07-15T15:07:26.837Z,97083.00
2018-07-15T15:10:09.155Z,97076.00
2018-07-15T15:12:50.961Z,97072.00
2018-07-15T15:15:33.950Z,97081.00
2018-07-15T15:18:15.824Z,97076.00
2018-07-15T15:23:54.693Z,97071.00
2018-07-15T15:26:36.389Z,97080.00
2018-07-15T15:29:18.018Z,97080.00
2018-07-15T15:32:02.278Z,97084.00
2018-07-15T15:34:44.918Z,97067.00
2018-07-15T15:37:29.065Z,97079.00
2018-07-15T15:40:10.507Z,97087.00
2018-07-15T15:42:54.437Z,97088.00
2018-07-15T15:45:35.996Z,97082.00
2018-07-15T15:48:36.897Z,97087.00
2018-07-15T15:51:18.407Z,97085.00
2018-07-15T15:54:04.292Z,97091.00
2018-07-15T15:56:47.089Z,97085.00
2018-07-15T16:05:02.685Z,97087.00
2018-07-15T16:07:44.322Z,97083.00
2018-07-15T16:16:19.550Z,97079.00
2018-07-15T16:19:01.170Z,97079.00
2018-07-15T16:21:45.903Z,97079.00
2018-07-15T16:28:31.675Z,97076.00
2018-07-15T16:31:13.244Z,97070.00
2018-07-15T16:33:56.304Z,97065.00
2018-07-15T16:36:37.733Z,97072.00
2018-07-15T16:39:21.338Z,97066.00
2018-07-15T16:42:03.079Z,97076.00
2018-07-15T16:44:47.197Z,97067.00
2018-07-15T16:50:39.114Z,97070.00
2018-07-15T16:53:35.477Z,97070.00
2018-07-15T16:56:51.221Z,97064.00
2018-07-15T17:06:38.357Z,97052.00
2018-07-15T17:22:34.726Z,97058.00
2018-07-15T17:25:16.112Z,97059.00
2018-07-15T17:27:58.441Z,97058.00
2018-07-15T17:30:40.078Z,97059.00
2018-07-15T17:33:31.208Z,97055.00
2018-07-15T17:36:19.279Z,97061.00
2018-07-15T17:39:07.322Z,97059.00
2018-07-15T17:42:01.253Z,97065.00
2018-07-15T17:44:59.759Z,97063.00
2018-07-15T17:48:08.387Z,97070.00
2018-07-15T17:51:17.934Z,97065.00
2018-07-15T18:06:25.085Z,97064.00
2018-07-15T18:09:07.486Z,97070.00
2018-07-15T18:11:49.743Z,97067.00
2018-07-15T18:14:53.496Z,97071.00
2018-07-15T18:17:46.437Z,97066.00
2018-07-15T18:20:34.604Z,97064.00
2018-07-15T18:23:21.923Z,97062.00
2018-07-15T18:35:46.696Z,97066.00
2018-07-15T18:38:28.622Z,97069.00
2018-07-15T18:41:10.815Z,97079.00
2018-07-15T18:43:52.341Z,97076.00
2018-07-15T18:50:51.237Z,97084.00
2018-07-15T18:53:34.430Z,97083.00
2018-07-15T18:59:36.572Z,97085.00
2018-07-15T19:02:29.193Z,97084.00
2018-07-15T19:05:10.665Z,97088.00
2018-07-15T19:07:52.270Z,97087.00
2018-07-15T19:10:33.730Z,97085.00
2018-07-15T19:13:14.959Z,97092.00
2018-07-15T19:26:59.200Z,97103.00
2018-07-15T19:40:57.568Z,97104.00
2018-07-15T19:43:39.793Z,97099.00
2018-07-15T19:46:21.375Z,97096.00
2018-07-15T19:49:04.133Z,97102.00
2018-07-15T19:51:45.764Z,97095.00
2018-07-15T19:54:33.206Z,97098.00
2018-07-15T20:00:50.073Z,97104.00
2018-07-15T20:03:32.685Z,97104.00
2018-07-15T20:16:05.172Z,97108.00
2018-07-15T20:18:51.870Z,97116.00
2018-07-15T20:21:33.378Z,97108.00
2018-07-15T20:24:15.073Z,97113.00
2018-07-15T20:26:57.630Z,97105.00
2018-07-15T20:29:40.109Z,97115.00
2018-07-15T20:32:27.476Z,97116.00
2018-07-15T20:35:09.068Z,97115.00
2018-07-15T20:37:50.653Z,97115.00
2018-07-15T20:40:32.006Z,97108.00
2018-07-15T21:04:52.090Z,97120.00
2018-07-15T21:07:37.200Z,97119.00
2018-07-15T21:10:39.377Z,97124.00
2018-07-15T21:13:20.945Z,97130.00
2018-07-15T21:16:02.585Z,97131.00
2018-07-15T21:18:45.934Z,97125.00
2018-07-15T21:21:28.056Z,97125.00
2018-07-15T21:26:59.234Z,97130.00
2018-07-15T21:29:40.690Z,97125.00
2018-07-15T21:32:22.053Z,97126.00
2018-07-15T21:35:03.480Z,97132.00
2018-07-15T21:37:45.007Z,97134.00
2018-07-15T21:40:27.418Z,97140.00
2018-07-15T21:43:08.893Z,97137.00
2018-07-15T21:45:50.289Z,97140.00
2018-07-15T21:48:31.867Z,97146.00
2018-07-15T21:51:14.186Z,97151.00
2018-07-15T21:53:56.449Z,97152.00
2018-07-15T21:56:37.829Z,97143.00
2018-07-15T21:59:19.218Z,97142.00
2018-07-15T22:02:01.533Z,97142.00
2018-07-15T22:04:43.041Z,97148.00
2018-07-15T22:07:41.393Z,97145.00
2018-07-15T22:10:30.064Z,97152.00
2018-07-15T22:13:11.389Z,97154.00
2018-07-15T22:15:52.729Z,97155.00
2018-07-15T22:18:34.093Z,97148.00
2018-07-15T22:21:15.635Z,97151.00
2018-07-15T22:23:58.155Z,97154.00
2018-07-15T22:26:39.597Z,97149.00
2018-07-15T22:29:20.957Z,97145.00
2018-07-15T22:32:02.366Z,97147.00
2018-07-15T22:34:43.740Z,97138.00
2018-07-15T22:37:25.200Z,97136.00
2018-07-15T22:40:06.552Z,97137.00
2018-07-15T22:42:48.145Z,97141.00
2018-07-15T22:45:29.997Z,97139.00
2018-07-15T22:48:11.495Z,97130.00
2018-07-15T22:50:52.979Z,97132.00
2018-07-15T22:53:34.279Z,97130.00
2018-07-15T22:56:15.593Z,97126.00
2018-07-15T22:58:57.922Z,97130.00
2018-07-15T23:01:39.353Z,97127.00
2018-07-15T23:04:38.378Z,97125.00
2018-07-15T23:07:19.724Z,97119.00
2018-07-15T23:10:01.886Z,97115.00
2018-07-15T23:12:43.205Z,97108.00
2018-07-15T23:15:24.675Z,97111.00
2018-07-15T23:18:06.059Z,97105.00
2018-07-15T23:20:48.144Z,97105.00
2018-07-15T23:23:30.113Z,97099.00
2018-07-15T23:26:11.548Z,97101.00
2018-07-15T23:28:53.244Z,97111.00
2018-07-15T23:31:34.750Z,97105.00
2018-07-15T23:34:16.276Z,97106.00
2018-07-15T23:36:59.262Z,97108.00
2018-07-15T23:39:40.595Z,97105.00
2018-07-15T23:42:21.984Z,97105.00
2018-07-15T23:45:03.697Z,97103.00
2018-07-15T23:47:45.008Z,97103.00
2018-07-15T23:50:27.369Z,97107.00
2018-07-15T23:53:08.807Z,97105.00
2018-07-15T23:55:50.359Z,97109.00
2018-07-15T23:58:31.897Z,97099.00
